createdAt,value
2018-10-18T00:00:36.382Z,12.40
2018-10-18T00:03:05.024Z,12.30
2018-10-18T00:05:33.257Z,12.30
2018-10-18T00:08:01.549Z,12.30
2018-10-18T00:10:30.371Z,12.30
2018-10-18T00:12:58.554Z,12.30
2018-10-18T00:15:26.785Z,12.40
2018-10-18T00:17:55.074Z,12.30
2018-10-18T00:20:23.258Z,12.30
2018-10-18T00:22:51.447Z,12.20
2018-10-18T00:25:19.970Z,12.20
2018-10-18T00:27:48.170Z,12.20
2018-10-18T00:30:16.690Z,12.10
2018-10-18T00:32:45.353Z,12.10
2018-10-18T00:35:13.657Z,12.20
2018-10-18T00:37:41.902Z,12.20
2018-10-18T00:40:12.851Z,12.10
2018-10-18T00:42:41.570Z,12.10
2018-10-18T00:45:10.458Z,12.00
2018-10-18T00:47:38.690Z,12.00
2018-10-18T00:50:08.204Z,11.90
2018-10-18T00:52:36.420Z,11.90
2018-10-18T00:55:04.794Z,11.90
2018-10-18T00:57:32.993Z,12.00
2018-10-18T01:00:01.254Z,11.90
2018-10-18T01:02:30.111Z,11.90
2018-10-18T01:04:58.321Z,11.90
2018-10-18T01:07:26.523Z,11.90
2018-10-18T01:09:54.757Z,11.90
2018-10-18T01:12:23.034Z,11.90
2018-10-18T01:14:51.162Z,11.90
2018-10-18T01:17:19.415Z,11.90
2018-10-18T01:19:47.606Z,11.90
2018-10-18T01:22:15.805Z,11.90
2018-10-18T01:24:44.285Z,11.90
2018-10-18T01:27:12.554Z,11.90
2018-10-18T01:29:40.755Z,11.90
2018-10-18T01:32:09.397Z,11.90
2018-10-18T01:34:37.582Z,11.90
2018-10-18T01:37:05.886Z,11.90
2018-10-18T01:39:34.359Z,11.90
2018-10-18T01:42:02.642Z,11.80
2018-10-18T01:44:30.797Z,11.80
2018-10-18T01:46:59.353Z,11.70
2018-10-18T01:49:27.554Z,11.70
2018-10-18T01:51:55.749Z,11.70
2018-10-18T01:54:24.043Z,11.70
2018-10-18T01:56:52.242Z,11.70
2018-10-18T01:59:20.438Z,11.70
2018-10-18T02:01:48.990Z,11.70
2018-10-18T02:04:17.194Z,11.70
2018-10-18T02:06:45.389Z,11.70
2018-10-18T02:09:14.221Z,11.70
2018-10-18T02:11:42.713Z,11.70
2018-10-18T02:14:10.926Z,11.70
2018-10-18T02:16:40.258Z,11.70
2018-10-18T02:19:08.534Z,11.70
2018-10-18T02:21:36.662Z,11.70
2018-10-18T02:24:05.409Z,11.70
2018-10-18T02:26:33.511Z,11.80
2018-10-18T02:29:01.899Z,11.80
2018-10-18T02:31:30.206Z,11.70
2018-10-18T02:33:58.396Z,11.60
2018-10-18T02:36:26.597Z,11.60
2018-10-18T02:38:54.998Z,11.50
2018-10-18T02:41:23.204Z,11.50
2018-10-18T02:43:51.402Z,11.40
2018-10-18T02:46:20.038Z,11.50
2018-10-18T02:48:48.233Z,11.40
2018-10-18T02:51:16.438Z,11.40
2018-10-18T02:53:44.842Z,11.50
2018-10-18T02:56:13.034Z,11.40
2018-10-18T02:58:41.233Z,11.50
2018-10-18T03:01:09.865Z,11.50
2018-10-18T03:03:38.062Z,11.50
2018-10-18T03:06:06.329Z,11.50
2018-10-18T03:08:34.528Z,11.50
2018-10-18T03:11:02.722Z,11.60
2018-10-18T03:13:30.942Z,11.70
2018-10-18T03:15:59.246Z,11.70
2018-10-18T03:18:27.400Z,11.80
2018-10-18T03:20:55.602Z,11.80
2018-10-18T03:23:24.354Z,11.80
2018-10-18T03:25:52.564Z,11.80
2018-10-18T03:28:20.763Z,11.90
2018-10-18T03:30:49.606Z,11.90
2018-10-18T03:33:17.810Z,11.90
2018-10-18T03:35:46.006Z,11.90
2018-10-18T03:38:14.897Z,11.90
2018-10-18T03:40:43.143Z,12.00
2018-10-18T03:43:11.304Z,12.10
2018-10-18T03:45:39.821Z,12.10
2018-10-18T03:48:08.063Z,12.10
2018-10-18T03:50:36.250Z,12.20
2018-10-18T03:53:04.577Z,12.10
2018-10-18T03:55:32.774Z,12.10
2018-10-18T03:58:01.000Z,12.10
2018-10-18T04:00:29.652Z,12.20
2018-10-18T04:02:57.843Z,12.30
2018-10-18T04:05:26.061Z,12.30
2018-10-18T04:07:54.280Z,12.30
2018-10-18T04:10:22.506Z,12.30
2018-10-18T04:12:50.779Z,12.30
2018-10-18T04:15:19.055Z,12.40
2018-10-18T04:17:47.352Z,12.40
2018-10-18T04:20:15.465Z,12.40
2018-10-18T04:22:44.147Z,12.40
2018-10-18T04:25:12.339Z,12.50
2018-10-18T04:27:40.531Z,12.50
2018-10-18T04:30:09.379Z,12.50
2018-10-18T04:32:37.698Z,12.50
2018-10-18T04:35:06.574Z,12.50
2018-10-18T04:37:35.457Z,12.60
2018-10-18T04:40:03.650Z,12.60
2018-10-18T04:42:31.846Z,12.70
2018-10-18T04:45:00.077Z,12.60
2018-10-18T04:47:28.391Z,12.70
2018-10-18T04:49:58.705Z,12.80
2018-10-18T04:52:27.179Z,12.80
2018-10-18T04:54:55.379Z,12.80
2018-10-18T04:57:23.573Z,12.80
2018-10-18T04:59:51.794Z,12.80
2018-10-18T05:02:20.033Z,12.80
2018-10-18T05:04:59.869Z,12.80
2018-10-18T05:07:28.134Z,12.80
2018-10-18T05:09:56.578Z,12.80
2018-10-18T05:12:25.183Z,12.80
2018-10-18T05:14:53.387Z,12.90
2018-10-18T05:17:21.603Z,12.90
2018-10-18T05:19:50.194Z,12.90
2018-10-18T05:22:18.449Z,13.00
2018-10-18T05:24:46.654Z,12.90
2018-10-18T05:27:15.610Z,13.00
2018-10-18T05:29:44.065Z,13.10
2018-10-18T05:32:12.254Z,13.00
2018-10-18T05:34:40.878Z,13.10
2018-10-18T05:37:09.127Z,13.10
2018-10-18T05:39:37.356Z,13.10
2018-10-18T05:42:05.738Z,13.10
2018-10-18T05:44:33.926Z,13.20
2018-10-18T05:47:02.154Z,13.20
2018-10-18T05:49:30.359Z,13.20
2018-10-18T05:51:58.562Z,13.20
2018-10-18T05:54:26.755Z,13.20
2018-10-18T05:56:54.970Z,13.20
2018-10-18T05:59:23.187Z,13.20
2018-10-18T06:01:51.385Z,13.20
2018-10-18T06:04:20.074Z,13.20
2018-10-18T06:06:48.306Z,13.20
2018-10-18T06:09:27.578Z,13.20
2018-10-18T06:11:56.046Z,13.20
2018-10-18T06:14:24.238Z,13.20
2018-10-18T06:16:52.834Z,13.20
2018-10-18T06:19:21.053Z,13.30
2018-10-18T06:21:49.249Z,13.30
2018-10-18T06:24:17.505Z,13.30
2018-10-18T06:26:45.798Z,13.30
2018-10-18T06:29:14.012Z,13.30
2018-10-18T06:31:42.539Z,13.30
2018-10-18T06:34:10.718Z,13.30
2018-10-18T06:36:39.110Z,13.30
2018-10-18T06:39:09.153Z,13.30
2018-10-18T06:41:38.077Z,13.20
2018-10-18T06:44:06.437Z,13.20
2018-10-18T06:46:34.662Z,13.10
2018-10-18T06:49:02.886Z,13.20
2018-10-18T06:51:31.110Z,13.20
2018-10-18T06:53:59.955Z,13.20
2018-10-18T06:56:28.170Z,13.30
2018-10-18T06:58:56.398Z,13.40
2018-10-18T07:01:24.982Z,13.40
2018-10-18T07:03:53.206Z,13.50
2018-10-18T07:06:21.411Z,13.50
2018-10-18T07:08:50.239Z,13.60
2018-10-18T07:11:18.446Z,13.60
2018-10-18T07:13:46.677Z,13.60
2018-10-18T07:16:15.267Z,13.70
2018-10-18T07:18:43.510Z,13.70
2018-10-18T07:21:11.717Z,13.70
2018-10-18T07:23:39.979Z,13.80
2018-10-18T07:26:08.252Z,13.80
2018-10-18T07:28:36.453Z,13.80
2018-10-18T07:31:05.155Z,13.90
2018-10-18T07:33:33.347Z,13.80
2018-10-18T07:36:01.613Z,13.90
2018-10-18T07:38:29.903Z,13.90
2018-10-18T07:40:58.128Z,13.90
2018-10-18T07:43:26.359Z,13.90
2018-10-18T07:45:55.014Z,13.90
2018-10-18T07:48:23.218Z,13.80
2018-10-18T07:50:51.418Z,13.80
2018-10-18T07:53:19.830Z,13.70
2018-10-18T07:55:47.908Z,13.70
2018-10-18T07:58:16.110Z,13.70
2018-10-18T08:00:44.350Z,13.70
2018-10-18T08:03:12.530Z,13.70
2018-10-18T08:05:40.721Z,13.80
2018-10-18T08:08:08.998Z,13.90
2018-10-18T08:10:37.201Z,14.00
2018-10-18T08:13:05.430Z,14.20
2018-10-18T08:15:33.675Z,14.30
2018-10-18T08:18:01.874Z,14.50
2018-10-18T08:20:30.061Z,14.60
2018-10-18T08:22:58.283Z,14.80
2018-10-18T08:25:26.482Z,14.90
2018-10-18T08:27:54.686Z,15.00
2018-10-18T08:30:23.367Z,15.10
2018-10-18T08:32:51.670Z,15.10
2018-10-18T08:35:19.877Z,15.10
2018-10-18T08:37:48.106Z,15.00
2018-10-18T08:40:16.471Z,15.00
2018-10-18T08:42:44.665Z,15.10
2018-10-18T08:45:13.639Z,15.20
2018-10-18T08:47:41.850Z,15.20
2018-10-18T08:50:11.349Z,15.30
2018-10-18T08:52:40.088Z,15.20
2018-10-18T08:55:10.532Z,15.10
2018-10-18T08:57:38.660Z,15.00
2018-10-18T09:00:07.534Z,14.90
2018-10-18T09:02:35.769Z,15.00
2018-10-18T09:05:03.957Z,15.10
2018-10-18T09:07:32.443Z,15.20
2018-10-18T09:10:00.658Z,15.50
2018-10-18T09:12:28.862Z,15.70
2018-10-18T09:14:57.600Z,15.80
2018-10-18T09:17:25.783Z,15.90
2018-10-18T09:19:53.974Z,16.00
2018-10-18T09:22:22.191Z,16.20
2018-10-18T09:24:50.402Z,16.40
2018-10-18T09:27:18.638Z,16.30
2018-10-18T09:29:46.914Z,16.30
2018-10-18T09:32:15.118Z,16.10
2018-10-18T09:34:43.323Z,16.10
2018-10-18T09:37:12.253Z,16.20
2018-10-18T09:39:40.401Z,16.50
2018-10-18T09:42:08.668Z,16.60
2018-10-18T09:44:36.928Z,16.80
2018-10-18T09:47:05.479Z,16.80
2018-10-18T09:49:33.734Z,16.70
2018-10-18T09:52:01.962Z,16.50
2018-10-18T09:54:30.297Z,16.20
2018-10-18T09:56:58.499Z,16.30
2018-10-18T09:59:28.222Z,16.40
2018-10-18T10:02:01.803Z,16.30
2018-10-18T10:04:30.401Z,16.30
2018-10-18T10:06:59.465Z,16.80
2018-10-18T10:09:27.730Z,17.00
2018-10-18T10:11:55.953Z,17.10
2018-10-18T10:14:24.175Z,16.90
2018-10-18T10:16:52.366Z,17.00
2018-10-18T10:19:21.546Z,16.90
2018-10-18T10:21:49.767Z,16.90
2018-10-18T10:24:18.023Z,17.00
2018-10-18T10:26:46.716Z,17.00
2018-10-18T10:29:14.922Z,17.00
2018-10-18T10:31:43.167Z,17.20
2018-10-18T10:34:11.852Z,17.20
2018-10-18T10:36:40.057Z,17.20
2018-10-18T10:39:08.602Z,17.30
2018-10-18T10:41:36.750Z,17.50
2018-10-18T10:44:07.194Z,17.60
2018-10-18T10:46:35.864Z,17.80
2018-10-18T10:49:04.312Z,18.20
2018-10-18T10:51:32.483Z,18.30
2018-10-18T10:54:00.736Z,18.30
2018-10-18T10:56:29.326Z,17.90
2018-10-18T10:58:57.599Z,17.40
2018-10-18T11:01:26.711Z,17.30
2018-10-18T11:03:56.346Z,17.20
2018-10-18T11:06:24.734Z,16.90
2018-10-18T11:08:52.970Z,16.60
2018-10-18T11:11:22.897Z,16.80
2018-10-18T11:13:51.094Z,17.10
2018-10-18T11:16:19.292Z,17.80
2018-10-18T11:18:47.514Z,18.30
2018-10-18T11:21:16.892Z,18.30
2018-10-18T11:23:45.082Z,18.20
2018-10-18T11:26:13.707Z,18.40
2018-10-18T11:28:41.880Z,18.30
2018-10-18T11:31:10.080Z,17.90
2018-10-18T11:33:38.306Z,17.80
2018-10-18T11:36:06.661Z,17.50
2018-10-18T11:38:34.730Z,17.30
2018-10-18T11:41:02.962Z,17.30
2018-10-18T11:43:31.198Z,17.20
2018-10-18T11:45:59.554Z,17.10
2018-10-18T11:48:28.318Z,17.00
2018-10-18T11:50:56.509Z,17.00
2018-10-18T11:53:24.737Z,17.10
2018-10-18T11:55:53.089Z,17.20
2018-10-18T11:58:21.311Z,17.30
2018-10-18T12:00:49.521Z,17.70
2018-10-18T12:03:18.269Z,17.40
2018-10-18T12:05:46.530Z,17.70
2018-10-18T12:08:14.757Z,18.30
2018-10-18T12:10:43.091Z,18.90
2018-10-18T12:13:11.322Z,18.30
2018-10-18T12:15:39.529Z,17.40
2018-10-18T12:18:08.230Z,17.20
2018-10-18T12:20:36.453Z,17.80
2018-10-18T12:23:04.793Z,18.00
2018-10-18T12:25:34.482Z,18.20
2018-10-18T12:28:02.772Z,18.30
2018-10-18T12:30:31.013Z,18.40
2018-10-18T12:32:59.910Z,18.60
2018-10-18T12:35:28.106Z,18.50
2018-10-18T12:37:56.391Z,18.60
2018-10-18T12:40:24.636Z,18.30
2018-10-18T12:42:52.812Z,18.10
2018-10-18T12:45:21.026Z,18.20
2018-10-18T12:47:49.718Z,17.70
2018-10-18T12:50:18.011Z,17.80
2018-10-18T12:52:46.149Z,17.90
2018-10-18T12:55:14.827Z,18.10
2018-10-18T12:57:43.068Z,17.90
2018-10-18T13:00:11.643Z,18.40
2018-10-18T13:02:39.932Z,18.40
2018-10-18T13:05:08.961Z,18.70
2018-10-18T13:07:37.213Z,18.50
2018-10-18T13:10:06.791Z,18.70
2018-10-18T13:12:35.127Z,19.00
2018-10-18T13:15:03.454Z,18.90
2018-10-18T13:17:32.247Z,18.40
2018-10-18T13:20:00.511Z,18.10
2018-10-18T13:22:28.715Z,18.00
2018-10-18T13:24:57.266Z,17.80
2018-10-18T13:27:25.519Z,17.60
2018-10-18T13:29:53.758Z,18.00
2018-10-18T13:32:22.038Z,17.70
2018-10-18T13:34:50.481Z,17.70
2018-10-18T13:37:18.758Z,17.60
2018-10-18T13:39:46.990Z,17.90
2018-10-18T13:42:15.235Z,17.60
2018-10-18T13:44:43.436Z,17.90
2018-10-18T13:47:12.084Z,17.80
2018-10-18T13:49:40.366Z,17.70
2018-10-18T13:52:08.592Z,17.50
2018-10-18T13:54:37.070Z,17.10
2018-10-18T13:57:05.792Z,17.20
2018-10-18T13:59:46.010Z,17.20
2018-10-18T14:02:14.324Z,17.20
2018-10-18T14:04:42.426Z,17.00
2018-10-18T14:07:11.342Z,17.00
2018-10-18T14:09:39.586Z,16.90
2018-10-18T14:12:07.911Z,16.80
2018-10-18T14:14:36.661Z,16.70
2018-10-18T14:17:04.950Z,16.70
2018-10-18T14:19:33.141Z,16.80
2018-10-18T14:22:01.355Z,16.70
2018-10-18T14:24:29.551Z,16.70
2018-10-18T14:26:57.770Z,16.60
2018-10-18T14:29:26.630Z,16.60
2018-10-18T14:31:54.837Z,16.70
2018-10-18T14:34:23.089Z,16.60
2018-10-18T14:36:52.082Z,16.60
2018-10-18T14:39:20.287Z,16.70
2018-10-18T14:41:48.651Z,16.50
2018-10-18T14:44:17.263Z,16.40
2018-10-18T14:46:45.438Z,16.30
2018-10-18T14:49:13.646Z,16.30
2018-10-18T14:51:42.159Z,16.20
2018-10-18T14:54:10.387Z,16.20
2018-10-18T14:56:38.606Z,16.20
2018-10-18T14:59:07.282Z,16.20
2018-10-18T15:01:35.394Z,16.10
2018-10-18T15:04:03.634Z,16.00
2018-10-18T15:06:31.862Z,16.00
2018-10-18T15:09:00.066Z,16.00
2018-10-18T15:11:28.258Z,15.90
2018-10-18T15:13:56.700Z,15.90
2018-10-18T15:16:24.938Z,15.90
2018-10-18T15:18:53.121Z,15.80
2018-10-18T15:21:22.107Z,15.80
2018-10-18T15:23:50.310Z,15.80
2018-10-18T15:26:18.613Z,15.80
2018-10-18T15:28:47.044Z,15.80
2018-10-18T15:31:15.252Z,15.80
2018-10-18T15:33:43.551Z,15.80
2018-10-18T15:36:11.922Z,15.70
2018-10-18T15:38:40.300Z,15.70
2018-10-18T15:41:08.382Z,15.60
2018-10-18T15:43:36.888Z,15.60
2018-10-18T15:46:05.340Z,15.60
2018-10-18T15:48:33.573Z,15.50
2018-10-18T15:51:01.918Z,15.40
2018-10-18T15:53:30.167Z,15.40
2018-10-18T15:55:58.342Z,15.30
2018-10-18T15:58:26.974Z,15.30
2018-10-18T16:00:55.194Z,15.20
2018-10-18T16:03:23.418Z,15.20
2018-10-18T16:05:51.718Z,15.20
2018-10-18T16:08:19.927Z,15.10
2018-10-18T16:10:48.142Z,15.00
2018-10-18T16:13:16.438Z,15.00
2018-10-18T16:15:44.650Z,14.90
2018-10-18T16:18:12.896Z,14.90
2018-10-18T16:20:41.546Z,14.80
2018-10-18T16:23:09.817Z,14.80
2018-10-18T16:25:38.001Z,14.70
2018-10-18T16:28:06.694Z,14.60
2018-10-18T16:30:34.903Z,14.50
2018-10-18T16:33:03.122Z,14.50
2018-10-18T16:35:31.830Z,14.40
2018-10-18T16:38:00.026Z,14.30
2018-10-18T16:40:28.265Z,14.20
2018-10-18T16:42:57.293Z,14.10
2018-10-18T16:45:25.638Z,14.00
2018-10-18T16:47:53.928Z,13.90
2018-10-18T16:50:23.899Z,13.80
2018-10-18T16:52:52.143Z,13.70
2018-10-18T16:55:20.489Z,13.60
2018-10-18T16:57:48.867Z,13.60
2018-10-18T17:00:17.240Z,13.60
2018-10-18T17:02:46.944Z,13.60
2018-10-18T17:05:15.281Z,13.60
2018-10-18T17:07:43.482Z,13.60
2018-10-18T17:10:11.748Z,13.50
2018-10-18T17:12:41.385Z,13.50
2018-10-18T17:15:10.221Z,13.40
2018-10-18T17:17:40.143Z,13.40
2018-10-18T17:20:08.862Z,13.30
2018-10-18T17:22:37.365Z,13.30
2018-10-18T17:25:06.914Z,13.30
2018-10-18T17:27:36.454Z,13.20
2018-10-18T17:30:04.914Z,13.10
2018-10-18T17:32:33.157Z,13.10
2018-10-18T17:35:01.740Z,13.10
2018-10-18T17:37:29.979Z,13.10
2018-10-18T17:39:58.207Z,13.00
2018-10-18T17:42:26.830Z,13.00
2018-10-18T17:44:55.009Z,13.00
2018-10-18T17:47:23.278Z,13.00
2018-10-18T17:49:52.012Z,13.00
2018-10-18T17:52:20.204Z,13.00
2018-10-18T17:54:48.434Z,12.90
2018-10-18T17:57:16.770Z,12.90
2018-10-18T17:59:45.092Z,12.80
2018-10-18T18:02:13.259Z,12.70
2018-10-18T18:04:41.482Z,12.70
2018-10-18T18:07:09.682Z,12.60
2018-10-18T18:09:37.906Z,12.60
2018-10-18T18:12:06.914Z,12.60
2018-10-18T18:14:35.520Z,12.60
2018-10-18T18:17:04.063Z,12.50
2018-10-18T18:19:36.051Z,12.50
2018-10-18T18:22:04.611Z,12.40
2018-10-18T18:24:32.799Z,12.40
2018-10-18T18:27:01.248Z,12.40
2018-10-18T18:29:29.454Z,12.40
2018-10-18T18:31:57.667Z,12.30
2018-10-18T18:34:26.326Z,12.30
2018-10-18T18:36:54.545Z,12.20
2018-10-18T18:39:22.758Z,12.10
2018-10-18T18:41:51.462Z,12.10
2018-10-18T18:44:19.661Z,12.00
2018-10-18T18:46:47.877Z,11.90
2018-10-18T18:49:16.390Z,11.90
2018-10-18T18:51:44.600Z,11.90
2018-10-18T18:54:12.879Z,11.90
2018-10-18T18:56:41.086Z,11.90
2018-10-18T18:59:09.487Z,11.90
2018-10-18T19:01:37.679Z,11.80
2018-10-18T19:04:06.566Z,11.80
2018-10-18T19:06:34.777Z,11.80
2018-10-18T19:09:03.408Z,11.70
2018-10-18T19:11:31.661Z,11.70
2018-10-18T19:13:59.927Z,11.70
2018-10-18T19:16:28.091Z,11.60
2018-10-18T19:18:56.338Z,11.50
2018-10-18T19:21:24.576Z,11.50
2018-10-18T19:23:52.782Z,11.50
2018-10-18T19:26:21.346Z,11.40
2018-10-18T19:28:49.782Z,11.40
2018-10-18T19:31:17.930Z,11.40
2018-10-18T19:33:46.145Z,11.40
2018-10-18T19:36:14.348Z,11.40
2018-10-18T19:38:42.551Z,11.40
2018-10-18T19:41:11.236Z,11.40
2018-10-18T19:43:39.442Z,11.30
2018-10-18T19:46:07.703Z,11.30
2018-10-18T19:48:36.158Z,11.20
2018-10-18T19:51:04.514Z,11.20
2018-10-18T19:53:32.718Z,11.20
2018-10-18T19:56:01.015Z,11.10
2018-10-18T19:58:29.268Z,11.00
2018-10-18T20:00:57.514Z,10.90
2018-10-18T20:03:26.070Z,10.90
2018-10-18T20:05:54.294Z,10.90
2018-10-18T20:08:22.554Z,10.90
2018-10-18T20:10:51.069Z,10.80
2018-10-18T20:13:19.309Z,10.70
2018-10-18T20:15:47.509Z,10.70
2018-10-18T20:18:15.916Z,10.70
2018-10-18T20:20:44.022Z,10.70
2018-10-18T20:23:12.221Z,10.60
2018-10-18T20:25:40.528Z,10.70
2018-10-18T20:28:08.650Z,10.70
2018-10-18T20:30:36.842Z,10.60
2018-10-18T20:33:05.501Z,10.70
2018-10-18T20:35:33.765Z,10.60
2018-10-18T20:38:01.914Z,10.60
2018-10-18T20:40:30.148Z,10.60
2018-10-18T20:42:58.347Z,10.70
2018-10-18T20:45:32.130Z,10.80
2018-10-18T20:48:00.431Z,10.80
2018-10-18T20:50:30.793Z,10.80
2018-10-18T20:52:59.596Z,10.80
2018-10-18T20:55:28.051Z,10.80
2018-10-18T20:57:56.254Z,10.70
2018-10-18T21:00:24.511Z,10.70
2018-10-18T21:02:52.905Z,10.60
2018-10-18T21:05:21.167Z,10.60
2018-10-18T21:07:49.851Z,10.50
2018-10-18T21:10:18.050Z,10.50
2018-10-18T21:12:46.241Z,10.50
2018-10-18T21:15:14.528Z,10.40
2018-10-18T21:17:42.747Z,10.40
2018-10-18T21:20:10.978Z,10.40
2018-10-18T21:22:39.535Z,10.30
2018-10-18T21:25:08.024Z,10.30
2018-10-18T21:27:36.242Z,10.20
2018-10-18T21:30:05.732Z,10.30
2018-10-18T21:32:33.941Z,10.30
2018-10-18T21:35:02.203Z,10.20
2018-10-18T21:37:30.470Z,10.20
2018-10-18T21:39:58.678Z,10.10
2018-10-18T21:42:26.902Z,10.10
2018-10-18T21:44:55.560Z,10.00
2018-10-18T21:47:23.906Z,10.10
2018-10-18T21:49:52.167Z,10.10
2018-10-18T21:52:20.974Z,10.00
2018-10-18T21:54:49.199Z,9.90
2018-10-18T21:57:17.415Z,9.90
2018-10-18T21:59:45.690Z,9.90
2018-10-18T22:02:13.874Z,9.80
2018-10-18T22:04:42.130Z,9.80
2018-10-18T22:07:10.350Z,9.80
2018-10-18T22:09:38.562Z,9.80
2018-10-18T22:12:06.813Z,9.80
2018-10-18T22:14:35.035Z,9.80
2018-10-18T22:17:03.374Z,9.80
2018-10-18T22:19:31.589Z,9.70
2018-10-18T22:22:00.319Z,9.70
2018-10-18T22:24:28.537Z,9.70
2018-10-18T22:26:56.831Z,9.60
2018-10-18T22:29:25.395Z,9.60
2018-10-18T22:31:53.614Z,9.60
2018-10-18T22:34:21.818Z,9.60
2018-10-18T22:36:50.576Z,9.50
2018-10-18T22:39:18.774Z,9.50
2018-10-18T22:41:46.978Z,9.50
2018-10-18T22:44:15.181Z,9.40
2018-10-18T22:46:43.403Z,9.40
2018-10-18T22:49:11.594Z,9.40
2018-10-18T22:51:40.538Z,9.40
2018-10-18T22:54:08.741Z,9.40
2018-10-18T22:56:36.957Z,9.40
2018-10-18T22:59:05.670Z,9.30
2018-10-18T23:01:33.909Z,9.30
2018-10-18T23:04:02.102Z,9.20
2018-10-18T23:06:30.817Z,9.20
2018-10-18T23:08:59.067Z,9.20
2018-10-18T23:11:27.246Z,9.20
2018-10-18T23:13:56.262Z,9.10
2018-10-18T23:16:24.498Z,9.10
2018-10-18T23:18:52.700Z,9.20
2018-10-18T23:21:21.409Z,9.10
2018-10-18T23:23:49.609Z,9.10
2018-10-18T23:26:17.801Z,9.00
2018-10-18T23:28:46.138Z,9.00
2018-10-18T23:31:14.335Z,9.00
2018-10-18T23:33:42.525Z,8.90
2018-10-18T23:36:10.807Z,8.90
2018-10-18T23:38:38.997Z,8.90
2018-10-18T23:41:07.347Z,8.90
2018-10-18T23:43:36.259Z,8.90
2018-10-18T23:46:04.526Z,8.90
2018-10-18T23:48:32.722Z,8.90
2018-10-18T23:51:00.977Z,9.00
2018-10-18T23:53:29.162Z,8.90
2018-10-18T23:55:57.370Z,8.80
2018-10-18T23:58:25.706Z,8.90
